Groesbeek, Netherlands
Current Conditions -  °F | °C
As of 4:25 AM on Sunday 23 Nov 2014 (Local Time) from EHVK Reporting Station
Overcast Overcast  
Wind Chill: 48°   Ceiling: 11000
Heat Index: 48°   Visibility: 6mi
Dew Point: 46°   Wind: 2mph
Humidity: 93%   Direction: 160°SSE
Pressure: 30.06"   Gusts: NA
Location:  51.78°N, 5.94°E
Report Text: EHVK 230325Z AUTO 16002KT 9999 BKN110 OVC170 09/08 Q1018 BLU
Loading
Personal Weather Stations






























Interactive Weather Map New forecast layout! Learn more

10-Day Weather Forecast

Advertisements
Track Severe Weather on mobile